Pietro Novelli — IOTQ — position and weather

sailwx.info

Track history (hours):
 
Tides and Currents Weather Stations Pressure Air Temp Water Temp Dewpoint Dewpoint Depression Visibility Wind Speed Wind Dir Waves Ship Positions

Pietro Novelli

Last reported at 2015-May-03 09:34 UTC. Time now 2015-May-03 09:49 UTC.
Position N 38°01' E 012°30'.

Length 91 m; draft 3.9 m.

Type: Ship. MMSI: 247000300.

Date/timePositionNaut miles runAvg speedWind from/ knotsBaromVisibWave heightAir tempDewpointWater temp
2015-May-03 09:34N 38°01' E 012°30'0 0.0
2015-May-03 08:33N 38°01' E 012°30'0 0.0
2015-May-03 07:34N 38°01' E 012°30'0 0.0
2015-May-03 06:33N 38°01' E 012°30'0 0.0
2015-May-03 05:33N 38°01' E 012°30'0 0.0
2015-May-03 04:33N 38°01' E 012°30'0 0.0
2015-May-03 03:33N 38°01' E 012°30'0 0.0
2015-May-03 02:33N 38°01' E 012°30'0 0.0
2015-May-03 01:33N 38°01' E 012°30'0 0.0
2015-May-03 00:33N 38°01' E 012°30'0 0.0
2015-May-02 23:33N 38°01' E 012°30'0 0.0
2015-May-02 22:34N 38°01' E 012°30'0 0.0
2015-May-02 21:33N 38°01' E 012°30'0 0.0
2015-May-02 20:34N 38°01' E 012°30'0 0.0
2015-May-02 19:33N 38°01' E 012°30'0 0.0
2015-May-02 18:33N 38°01' E 012°30'0 0.0
2015-May-02 17:33N 38°01' E 012°30'0 0.0
2015-May-02 16:34N 38°01' E 012°30'0 0.0
2015-May-02 15:33N 38°01' E 012°30'1010.0
2015-May-02 14:34N 37°54' E 012°22'1515.0
2015-May-02 13:33N 37°39' E 012°15'1514.8
2015-May-02 12:33N 37°25' E 012°10'1514.7
2015-May-02 11:32N 37°11' E 012°04'1414.5
2015-May-02 10:33N 36°57' E 011°59'7 5.1
2015-May-02 09:06N 36°50' E 011°56'39 4.6
2015-May-02 00:33N 37°28' E 012°10'1110.6
2015-May-01 23:33N 37°38' E 012°15'1110.6
2015-May-01 22:33N 37°48' E 012°19'1110.9
2015-May-01 21:33N 37°58' E 012°25'5 5.2
2015-May-01 20:33N 38°01' E 012°30'0 0.0
2015-May-01 19:33N 38°01' E 012°30'0 0.0
2015-May-01 18:33N 38°01' E 012°30'0 0.0
2015-May-01 17:33N 38°01' E 012°30'0 0.0
2015-May-01 16:33N 38°01' E 012°30'0 0.0
2015-May-01 15:33N 38°01' E 012°30'10 9.6
2015-May-01 14:33N 37°54' E 012°22'1514.9
2015-May-01 13:33N 37°40' E 012°15'1514.9
2015-May-01 12:33N 37°26' E 012°09'1514.9
2015-May-01 11:33N 37°11' E 012°04'1514.8
2015-May-01 10:33N 36°57' E 011°59'7 3.3
2015-May-01 08:19N 36°50' E 011°56'0 0.0
2015-May-01 07:33N 36°50' E 011°56'0 0.0
2015-May-01 06:33N 36°50' E 011°56'0 0.0
2015-May-01 05:33N 36°50' E 011°56'0 0.0
2015-May-01 04:33N 36°50' E 011°56'20 9.0
2015-May-01 02:21N 37°09' E 012°03'810.3
2015-May-01 01:34N 37°17' E 012°07'1010.5
2015-May-01 00:33N 37°27' E 012°11'1110.8
2015-Apr-30 23:31N 37°37' E 012°16'1210.8
2015-Apr-30 22:25N 37°49' E 012°20'1011.1
2015-Apr-30 21:33N 37°58' E 012°25'5 5.1
2015-Apr-30 20:33N 38°01' E 012°30'0 0.0
2015-Apr-30 19:33N 38°01' E 012°30'0 0.0
2015-Apr-30 18:33N 38°01' E 012°30'0 0.0
2015-Apr-30 17:33N 38°01' E 012°30'0 0.0
2015-Apr-30 16:33N 38°01' E 012°30'0 0.0
2015-Apr-30 15:33N 38°01' E 012°30'0 0.0
2015-Apr-30 14:33N 38°01' E 012°30'3 2.9
2015-Apr-30 13:33N 37°59' E 012°27'1312.6
2015-Apr-30 12:33N 37°47' E 012°22'5413.5
2015-Apr-30 08:33N 36°56' E 011°59'25 3.4
2015-Apr-30 01:17N 37°20' E 012°09'810.5
2015-Apr-30 00:33N 37°27' E 012°12'2210.8
2015-Apr-29 22:28N 37°49' E 012°20'1010.8
2015-Apr-29 21:33N 37°58' E 012°26'5 4.9
2015-Apr-29 20:34N 38°01' E 012°30'0 0.0
2015-Apr-29 19:33N 38°01' E 012°30'0 0.0
2015-Apr-29 18:33N 38°01' E 012°30'0 0.0
2015-Apr-29 17:33N 38°01' E 012°30'0 0.0
2015-Apr-29 16:33N 38°01' E 012°30'0 0.0
2015-Apr-29 15:33N 38°01' E 012°30'0 0.0
2015-Apr-29 14:33N 38°01' E 012°30'0 0.0
2015-Apr-29 13:33N 38°01' E 012°30'0 0.0
2015-Apr-29 12:33N 38°01' E 012°30'0 0.0
2015-Apr-29 11:33N 38°01' E 012°30'0 0.0
2015-Apr-29 10:34N 38°01' E 012°30'0 0.0
2015-Apr-29 09:34N 38°01' E 012°30'0 0.0
2015-Apr-29 08:34N 38°01' E 012°30'0 0.0
2015-Apr-29 07:33N 38°01' E 012°30'0 0.0
2015-Apr-29 06:34N 38°01' E 012°30'0 0.0
2015-Apr-29 05:33N 38°01' E 012°30'0 0.0
2015-Apr-29 04:33N 38°01' E 012°30'0 0.0
2015-Apr-29 03:33N 38°01' E 012°30'0 0.0
2015-Apr-29 02:33N 38°01' E 012°30'0 0.0
2015-Apr-29 01:33N 38°01' E 012°30'0 0.0
2015-Apr-29 00:33N 38°01' E 012°30'0 0.0
2015-Apr-28 23:33N 38°01' E 012°30'0 0.0
2015-Apr-28 22:33N 38°01' E 012°30'0 0.0
2015-Apr-28 21:33N 38°01' E 012°30'0 0.0
2015-Apr-28 20:33N 38°01' E 012°30'0 0.0
2015-Apr-28 19:33N 38°01' E 012°30'0 0.0
2015-Apr-28 18:34N 38°01' E 012°30'0 0.0
2015-Apr-28 17:33N 38°01' E 012°30'0 0.0
2015-Apr-28 16:33N 38°01' E 012°30'0 0.0
2015-Apr-28 15:33N 38°01' E 012°30'0 0.0
2015-Apr-28 14:33N 38°01' E 012°30'0 0.0
2015-Apr-28 13:33N 38°01' E 012°30'0 0.0
2015-Apr-28 12:33N 38°01' E 012°30'0 0.0
2015-Apr-28 11:33N 38°01' E 012°30'0 0.0
2015-Apr-28 10:33N 38°01' E 012°30'0 0.0
2015-Apr-28 09:33N 38°01' E 012°30'0 0.0
2015-Apr-28 08:34N 38°01' E 012°30'0 0.0
2015-Apr-28 07:33N 38°01' E 012°30'0 0.0
2015-Apr-28 06:33N 38°01' E 012°30'0 0.0
2015-Apr-28 05:33N 38°01' E 012°30'0 0.0
2015-Apr-28 04:33N 38°01' E 012°30'0 0.0
2015-Apr-28 03:33N 38°01' E 012°30'0 0.0
2015-Apr-28 02:34N 38°01' E 012°30'0 0.0
2015-Apr-28 01:33N 38°01' E 012°30'0 0.0
2015-Apr-28 00:33N 38°01' E 012°30'0 0.0
2015-Apr-27 23:33N 38°01' E 012°30'0 0.0
2015-Apr-27 22:33N 38°01' E 012°30'0 0.0
2015-Apr-27 21:33N 38°01' E 012°30'0 0.0
2015-Apr-27 20:33N 38°01' E 012°30'0 0.0
2015-Apr-27 19:33N 38°01' E 012°30'0 0.0
2015-Apr-27 18:33N 38°01' E 012°30'0 0.0
2015-Apr-27 17:33N 38°01' E 012°30'0 0.0
2015-Apr-27 16:34N 38°01' E 012°30'0 0.0
2015-Apr-27 15:34N 38°01' E 012°30'0 0.0
2015-Apr-27 14:33N 38°01' E 012°30'0 0.0
2015-Apr-27 13:33N 38°01' E 012°30'0 0.0
2015-Apr-27 12:34N 38°01' E 012°30'0 0.0
2015-Apr-27 11:33N 38°01' E 012°30'0 0.0
2015-Apr-27 10:33N 38°01' E 012°30'0 0.0
2015-Apr-27 09:33N 38°01' E 012°30'0 0.0
2015-Apr-27 08:33N 38°01' E 012°30'0 0.0
2015-Apr-27 07:33N 38°01' E 012°30'0 0.0
2015-Apr-27 06:33N 38°01' E 012°30'0 0.0
2015-Apr-27 05:33N 38°01' E 012°30'0 0.0
2015-Apr-27 04:33N 38°01' E 012°30'0 0.0
2015-Apr-27 03:33N 38°01' E 012°30'0 0.0
2015-Apr-27 02:34N 38°01' E 012°30'0 0.0
2015-Apr-27 01:34N 38°01' E 012°30'0 0.0
2015-Apr-27 00:33N 38°01' E 012°30'0 0.0
2015-Apr-26 23:33N 38°01' E 012°30'0 0.0
2015-Apr-26 22:33N 38°01' E 012°30'0 0.0
2015-Apr-26 21:33N 38°01' E 012°30'0 0.0
2015-Apr-26 20:33N 38°01' E 012°30'0 0.0
2015-Apr-26 19:33N 38°01' E 012°30'0 0.0
2015-Apr-26 18:33N 38°01' E 012°30'0 0.0
2015-Apr-26 17:33N 38°01' E 012°30'0 0.0
2015-Apr-26 16:33N 38°01' E 012°30'0 0.0
2015-Apr-26 15:33N 38°01' E 012°30'0 0.0
2015-Apr-26 14:33N 38°01' E 012°30'0 0.0
2015-Apr-26 13:33N 38°01' E 012°30'0 0.0
2015-Apr-26 12:33N 38°01' E 012°30'0 0.0
2015-Apr-26 11:34N 38°01' E 012°30'0 0.0
2015-Apr-26 10:33N 38°01' E 012°30'0 0.0
2015-Apr-26 09:33N 38°01' E 012°30'0 0.0
2015-Apr-26 08:33N 38°01' E 012°30'0 0.0
2015-Apr-26 07:33N 38°01' E 012°30'0 0.0
2015-Apr-26 06:33N 38°01' E 012°30'0 0.0
2015-Apr-26 05:33N 38°01' E 012°30'0 0.0
2015-Apr-26 04:33N 38°01' E 012°30'0 0.0
2015-Apr-26 03:33N 38°01' E 012°30'0 0.0
2015-Apr-26 02:33N 38°01' E 012°30'0 0.0
2015-Apr-26 01:34N 38°01' E 012°30'0 0.0
2015-Apr-26 00:33N 38°01' E 012°30'0 0.0
2015-Apr-25 23:34N 38°01' E 012°30'0 0.0
2015-Apr-25 22:33N 38°01' E 012°30'0 0.0
2015-Apr-25 21:33N 38°01' E 012°30'0 0.0
2015-Apr-25 20:34N 38°01' E 012°30'0 0.0
2015-Apr-25 19:34N 38°01' E 012°30'0 0.0
2015-Apr-25 18:33N 38°01' E 012°30'0 0.0
2015-Apr-25 17:33N 38°01' E 012°30'0 0.0
2015-Apr-25 16:33N 38°01' E 012°30'0 0.0
2015-Apr-25 15:33N 38°01' E 012°30'1110.5
2015-Apr-25 14:33N 37°53' E 012°22'1514.5
2015-Apr-25 13:29N 37°38' E 012°14'1414.4
2015-Apr-25 12:33N 37°26' E 012°09'6 0.5
2015-Apr-25 00:15N 37°31' E 012°12'910.8
2015-Apr-24 23:24N 37°39' E 012°16'911.0
2015-Apr-24 22:33N 37°48' E 012°20'1110.6
2015-Apr-24 21:33N 37°58' E 012°26'5 4.9
2015-Apr-24 20:33N 38°01' E 012°30'0 0.0
2015-Apr-24 19:33N 38°01' E 012°30'0 0.0
2015-Apr-24 18:33N 38°01' E 012°30'0 0.0
2015-Apr-24 17:33N 38°01' E 012°30'0 0.0
2015-Apr-24 16:33N 38°01' E 012°30'2 1.7
2015-Apr-24 15:33N 37°60' E 012°29'1413.8
2015-Apr-24 14:33N 37°48' E 012°19'0 0.0
2015-Apr-23 22:33N 37°48' E 012°19'1110.9
2015-Apr-23 21:33N 37°58' E 012°25'5 5.1
2015-Apr-23 20:33N 38°01' E 012°30'0 0.0
2015-Apr-23 19:33N 38°01' E 012°30'0 0.0
2015-Apr-23 18:34N 38°01' E 012°30'0 0.0
2015-Apr-23 17:33N 38°01' E 012°30'0 0.0
2015-Apr-23 16:34N 38°01' E 012°30'0 0.0
2015-Apr-23 15:33N 38°01' E 012°30'0 0.0
2015-Apr-23 14:34N 38°01' E 012°30'0 0.0
2015-Apr-23 13:33N 38°01' E 012°30'10 9.8
2015-Apr-23 12:34N 37°54' E 012°22'1614.5
2015-Apr-23 11:28N 37°39' E 012°14'1514.8
2015-Apr-23 10:26N 37°25' E 012°08'  
Track history (hours):
 
Tides and Currents Weather Stations Pressure Air Temp Water Temp Dewpoint Dewpoint Depression Visibility Wind Speed Wind Dir Waves Ship Positions

Pietro Novelli

Last reported at 2015-May-03 09:34 UTC. Time now 2015-May-03 09:49 UTC.
Position N 38°01' E 012°30'.

Length 91 m; draft 3.9 m.

Type: Ship. MMSI: 247000300.

Date/timePositionNaut miles runAvg speedWind from/ knotsBaromVisibWave heightAir tempDewpointWater temp
2015-May-03 09:34N 38°01' E 012°30'0 0.0
2015-May-03 08:33N 38°01' E 012°30'0 0.0
2015-May-03 07:34N 38°01' E 012°30'0 0.0
2015-May-03 06:33N 38°01' E 012°30'0 0.0
2015-May-03 05:33N 38°01' E 012°30'0 0.0
2015-May-03 04:33N 38°01' E 012°30'0 0.0
2015-May-03 03:33N 38°01' E 012°30'0 0.0
2015-May-03 02:33N 38°01' E 012°30'0 0.0
2015-May-03 01:33N 38°01' E 012°30'0 0.0
2015-May-03 00:33N 38°01' E 012°30'0 0.0
2015-May-02 23:33N 38°01' E 012°30'0 0.0
2015-May-02 22:34N 38°01' E 012°30'0 0.0
2015-May-02 21:33N 38°01' E 012°30'0 0.0
2015-May-02 20:34N 38°01' E 012°30'0 0.0
2015-May-02 19:33N 38°01' E 012°30'0 0.0
2015-May-02 18:33N 38°01' E 012°30'0 0.0
2015-May-02 17:33N 38°01' E 012°30'0 0.0
2015-May-02 16:34N 38°01' E 012°30'0 0.0
2015-May-02 15:33N 38°01' E 012°30'1010.0
2015-May-02 14:34N 37°54' E 012°22'1515.0
2015-May-02 13:33N 37°39' E 012°15'1514.8
2015-May-02 12:33N 37°25' E 012°10'1514.7
2015-May-02 11:32N 37°11' E 012°04'1414.5
2015-May-02 10:33N 36°57' E 011°59'7 5.1
2015-May-02 09:06N 36°50' E 011°56'39 4.6
2015-May-02 00:33N 37°28' E 012°10'1110.6
2015-May-01 23:33N 37°38' E 012°15'1110.6
2015-May-01 22:33N 37°48' E 012°19'1110.9
2015-May-01 21:33N 37°58' E 012°25'5 5.2
2015-May-01 20:33N 38°01' E 012°30'0 0.0
2015-May-01 19:33N 38°01' E 012°30'0 0.0
2015-May-01 18:33N 38°01' E 012°30'0 0.0
2015-May-01 17:33N 38°01' E 012°30'0 0.0
2015-May-01 16:33N 38°01' E 012°30'0 0.0
2015-May-01 15:33N 38°01' E 012°30'10 9.6
2015-May-01 14:33N 37°54' E 012°22'1514.9
2015-May-01 13:33N 37°40' E 012°15'1514.9
2015-May-01 12:33N 37°26' E 012°09'1514.9
2015-May-01 11:33N 37°11' E 012°04'1514.8
2015-May-01 10:33N 36°57' E 011°59'7 3.3
2015-May-01 08:19N 36°50' E 011°56'0 0.0
2015-May-01 07:33N 36°50' E 011°56'0 0.0
2015-May-01 06:33N 36°50' E 011°56'0 0.0
2015-May-01 05:33N 36°50' E 011°56'0 0.0
2015-May-01 04:33N 36°50' E 011°56'20 9.0
2015-May-01 02:21N 37°09' E 012°03'810.3
2015-May-01 01:34N 37°17' E 012°07'1010.5
2015-May-01 00:33N 37°27' E 012°11'1110.8
2015-Apr-30 23:31N 37°37' E 012°16'1210.8
2015-Apr-30 22:25N 37°49' E 012°20'1011.1
2015-Apr-30 21:33N 37°58' E 012°25'5 5.1
2015-Apr-30 20:33N 38°01' E 012°30'0 0.0
2015-Apr-30 19:33N 38°01' E 012°30'0 0.0
2015-Apr-30 18:33N 38°01' E 012°30'0 0.0
2015-Apr-30 17:33N 38°01' E 012°30'0 0.0
2015-Apr-30 16:33N 38°01' E 012°30'0 0.0
2015-Apr-30 15:33N 38°01' E 012°30'0 0.0
2015-Apr-30 14:33N 38°01' E 012°30'3 2.9
2015-Apr-30 13:33N 37°59' E 012°27'1312.6
2015-Apr-30 12:33N 37°47' E 012°22'5413.5
2015-Apr-30 08:33N 36°56' E 011°59'25 3.4
2015-Apr-30 01:17N 37°20' E 012°09'810.5
2015-Apr-30 00:33N 37°27' E 012°12'2210.8
2015-Apr-29 22:28N 37°49' E 012°20'1010.8
2015-Apr-29 21:33N 37°58' E 012°26'5 4.9
2015-Apr-29 20:34N 38°01' E 012°30'0 0.0
2015-Apr-29 19:33N 38°01' E 012°30'0 0.0
2015-Apr-29 18:33N 38°01' E 012°30'0 0.0
2015-Apr-29 17:33N 38°01' E 012°30'0 0.0
2015-Apr-29 16:33N 38°01' E 012°30'0 0.0
2015-Apr-29 15:33N 38°01' E 012°30'0 0.0
2015-Apr-29 14:33N 38°01' E 012°30'0 0.0
2015-Apr-29 13:33N 38°01' E 012°30'0 0.0
2015-Apr-29 12:33N 38°01' E 012°30'0 0.0
2015-Apr-29 11:33N 38°01' E 012°30'0 0.0
2015-Apr-29 10:34N 38°01' E 012°30'0 0.0
2015-Apr-29 09:34N 38°01' E 012°30'0 0.0
2015-Apr-29 08:34N 38°01' E 012°30'0 0.0
2015-Apr-29 07:33N 38°01' E 012°30'0 0.0
2015-Apr-29 06:34N 38°01' E 012°30'0 0.0
2015-Apr-29 05:33N 38°01' E 012°30'0 0.0
2015-Apr-29 04:33N 38°01' E 012°30'0 0.0
2015-Apr-29 03:33N 38°01' E 012°30'0 0.0
2015-Apr-29 02:33N 38°01' E 012°30'0 0.0
2015-Apr-29 01:33N 38°01' E 012°30'0 0.0
2015-Apr-29 00:33N 38°01' E 012°30'0 0.0
2015-Apr-28 23:33N 38°01' E 012°30'0 0.0
2015-Apr-28 22:33N 38°01' E 012°30'0 0.0
2015-Apr-28 21:33N 38°01' E 012°30'0 0.0
2015-Apr-28 20:33N 38°01' E 012°30'0 0.0
2015-Apr-28 19:33N 38°01' E 012°30'0 0.0
2015-Apr-28 18:34N 38°01' E 012°30'0 0.0
2015-Apr-28 17:33N 38°01' E 012°30'0 0.0
2015-Apr-28 16:33N 38°01' E 012°30'0 0.0
2015-Apr-28 15:33N 38°01' E 012°30'0 0.0
2015-Apr-28 14:33N 38°01' E 012°30'0 0.0
2015-Apr-28 13:33N 38°01' E 012°30'0 0.0
2015-Apr-28 12:33N 38°01' E 012°30'0 0.0
2015-Apr-28 11:33N 38°01' E 012°30'0 0.0
2015-Apr-28 10:33N 38°01' E 012°30'0 0.0
2015-Apr-28 09:33N 38°01' E 012°30'0 0.0
2015-Apr-28 08:34N 38°01' E 012°30'0 0.0
2015-Apr-28 07:33N 38°01' E 012°30'0 0.0
2015-Apr-28 06:33N 38°01' E 012°30'0 0.0
2015-Apr-28 05:33N 38°01' E 012°30'0 0.0
2015-Apr-28 04:33N 38°01' E 012°30'0 0.0
2015-Apr-28 03:33N 38°01' E 012°30'0 0.0
2015-Apr-28 02:34N 38°01' E 012°30'0 0.0
2015-Apr-28 01:33N 38°01' E 012°30'0 0.0
2015-Apr-28 00:33N 38°01' E 012°30'0 0.0
2015-Apr-27 23:33N 38°01' E 012°30'0 0.0
2015-Apr-27 22:33N 38°01' E 012°30'0 0.0
2015-Apr-27 21:33N 38°01' E 012°30'0 0.0
2015-Apr-27 20:33N 38°01' E 012°30'0 0.0
2015-Apr-27 19:33N 38°01' E 012°30'0 0.0
2015-Apr-27 18:33N 38°01' E 012°30'0 0.0
2015-Apr-27 17:33N 38°01' E 012°30'0 0.0
2015-Apr-27 16:34N 38°01' E 012°30'0 0.0
2015-Apr-27 15:34N 38°01' E 012°30'0 0.0
2015-Apr-27 14:33N 38°01' E 012°30'0 0.0
2015-Apr-27 13:33N 38°01' E 012°30'0 0.0
2015-Apr-27 12:34N 38°01' E 012°30'0 0.0
2015-Apr-27 11:33N 38°01' E 012°30'0 0.0
2015-Apr-27 10:33N 38°01' E 012°30'0 0.0
2015-Apr-27 09:33N 38°01' E 012°30'0 0.0
2015-Apr-27 08:33N 38°01' E 012°30'0 0.0
2015-Apr-27 07:33N 38°01' E 012°30'0 0.0
2015-Apr-27 06:33N 38°01' E 012°30'0 0.0
2015-Apr-27 05:33N 38°01' E 012°30'0 0.0
2015-Apr-27 04:33N 38°01' E 012°30'0 0.0
2015-Apr-27 03:33N 38°01' E 012°30'0 0.0
2015-Apr-27 02:34N 38°01' E 012°30'0 0.0
2015-Apr-27 01:34N 38°01' E 012°30'0 0.0
2015-Apr-27 00:33N 38°01' E 012°30'0 0.0
2015-Apr-26 23:33N 38°01' E 012°30'0 0.0
2015-Apr-26 22:33N 38°01' E 012°30'0 0.0
2015-Apr-26 21:33N 38°01' E 012°30'0 0.0
2015-Apr-26 20:33N 38°01' E 012°30'0 0.0
2015-Apr-26 19:33N 38°01' E 012°30'0 0.0
2015-Apr-26 18:33N 38°01' E 012°30'0 0.0
2015-Apr-26 17:33N 38°01' E 012°30'0 0.0
2015-Apr-26 16:33N 38°01' E 012°30'0 0.0
2015-Apr-26 15:33N 38°01' E 012°30'0 0.0
2015-Apr-26 14:33N 38°01' E 012°30'0 0.0
2015-Apr-26 13:33N 38°01' E 012°30'0 0.0
2015-Apr-26 12:33N 38°01' E 012°30'0 0.0
2015-Apr-26 11:34N 38°01' E 012°30'0 0.0
2015-Apr-26 10:33N 38°01' E 012°30'0 0.0
2015-Apr-26 09:33N 38°01' E 012°30'0 0.0
2015-Apr-26 08:33N 38°01' E 012°30'0 0.0
2015-Apr-26 07:33N 38°01' E 012°30'0 0.0
2015-Apr-26 06:33N 38°01' E 012°30'0 0.0
2015-Apr-26 05:33N 38°01' E 012°30'0 0.0
2015-Apr-26 04:33N 38°01' E 012°30'0 0.0
2015-Apr-26 03:33N 38°01' E 012°30'0 0.0
2015-Apr-26 02:33N 38°01' E 012°30'0 0.0
2015-Apr-26 01:34N 38°01' E 012°30'0 0.0
2015-Apr-26 00:33N 38°01' E 012°30'0 0.0
2015-Apr-25 23:34N 38°01' E 012°30'0 0.0
2015-Apr-25 22:33N 38°01' E 012°30'0 0.0
2015-Apr-25 21:33N 38°01' E 012°30'0 0.0
2015-Apr-25 20:34N 38°01' E 012°30'0 0.0
2015-Apr-25 19:34N 38°01' E 012°30'0 0.0
2015-Apr-25 18:33N 38°01' E 012°30'0 0.0
2015-Apr-25 17:33N 38°01' E 012°30'0 0.0
2015-Apr-25 16:33N 38°01' E 012°30'0 0.0
2015-Apr-25 15:33N 38°01' E 012°30'1110.5
2015-Apr-25 14:33N 37°53' E 012°22'1514.5
2015-Apr-25 13:29N 37°38' E 012°14'1414.4
2015-Apr-25 12:33N 37°26' E 012°09'6 0.5
2015-Apr-25 00:15N 37°31' E 012°12'910.8
2015-Apr-24 23:24N 37°39' E 012°16'911.0
2015-Apr-24 22:33N 37°48' E 012°20'1110.6
2015-Apr-24 21:33N 37°58' E 012°26'5 4.9
2015-Apr-24 20:33N 38°01' E 012°30'0 0.0
2015-Apr-24 19:33N 38°01' E 012°30'0 0.0
2015-Apr-24 18:33N 38°01' E 012°30'0 0.0
2015-Apr-24 17:33N 38°01' E 012°30'0 0.0
2015-Apr-24 16:33N 38°01' E 012°30'2 1.7
2015-Apr-24 15:33N 37°60' E 012°29'1413.8
2015-Apr-24 14:33N 37°48' E 012°19'0 0.0
2015-Apr-23 22:33N 37°48' E 012°19'1110.9
2015-Apr-23 21:33N 37°58' E 012°25'5 5.1
2015-Apr-23 20:33N 38°01' E 012°30'0 0.0
2015-Apr-23 19:33N 38°01' E 012°30'0 0.0
2015-Apr-23 18:34N 38°01' E 012°30'0 0.0
2015-Apr-23 17:33N 38°01' E 012°30'0 0.0
2015-Apr-23 16:34N 38°01' E 012°30'0 0.0
2015-Apr-23 15:33N 38°01' E 012°30'0 0.0
2015-Apr-23 14:34N 38°01' E 012°30'0 0.0
2015-Apr-23 13:33N 38°01' E 012°30'10 9.8
2015-Apr-23 12:34N 37°54' E 012°22'1614.5
2015-Apr-23 11:28N 37°39' E 012°14'1514.8
2015-Apr-23 10:26N 37°25' E 012°08'  

Dump ship's entire track history